createdAt,value
2022-10-18T00:01:25.917Z,101511.40
2022-10-18T00:03:53.946Z,101516.40
2022-10-18T00:06:21.701Z,101525.40
2022-10-18T00:08:51.844Z,101521.20
2022-10-18T00:11:20.214Z,101518.20
2022-10-18T00:13:48.184Z,101519.80
2022-10-18T00:16:20.422Z,101532.00
2022-10-18T00:18:48.611Z,101540.80
2022-10-18T00:21:24.037Z,101540.40
2022-10-18T00:23:53.700Z,101546.80
2022-10-18T00:26:28.809Z,101546.40
2022-10-18T00:29:01.155Z,101548.40
2022-10-18T00:31:35.758Z,101538.20
2022-10-18T00:34:10.194Z,101535.60
2022-10-18T00:36:38.386Z,101517.20
2022-10-18T00:39:08.589Z,101511.80
2022-10-18T00:41:39.728Z,101507.00
2022-10-18T00:44:28.658Z,101506.40
2022-10-18T00:47:07.435Z,101493.80
2022-10-18T00:49:49.272Z,101497.40
2022-10-18T00:52:27.326Z,101495.20
2022-10-18T00:54:57.609Z,101500.60
2022-10-18T00:57:26.679Z,101502.80
2022-10-18T00:59:54.980Z,101508.80
2022-10-18T01:02:24.798Z,101507.80
2022-10-18T01:04:52.975Z,101510.00
2022-10-18T01:07:48.154Z,101503.00
2022-10-18T01:11:08.079Z,101513.60
2022-10-18T01:13:56.888Z,101525.40
2022-10-18T01:16:54.755Z,101533.60
2022-10-18T01:20:02.636Z,101533.40
2022-10-18T01:22:42.681Z,101534.80
2022-10-18T01:25:58.124Z,101532.20
2022-10-18T01:29:10.025Z,101527.60
2022-10-18T01:31:49.927Z,101523.80
2022-10-18T01:34:20.645Z,101518.60
2022-10-18T01:36:55.976Z,101516.40
2022-10-18T01:39:31.140Z,101511.60
2022-10-18T01:42:03.148Z,101501.20
2022-10-18T01:44:34.464Z,101497.80
2022-10-18T01:47:07.163Z,101496.00
2022-10-18T01:49:35.139Z,101494.40
2022-10-18T01:52:03.214Z,101494.00
2022-10-18T01:54:41.776Z,101489.60
2022-10-18T01:57:54.919Z,101491.20
2022-10-18T02:00:29.928Z,101487.40
2022-10-18T02:03:15.613Z,101491.20
2022-10-18T02:05:43.204Z,101477.00
2022-10-18T02:08:35.381Z,101470.40
2022-10-18T02:11:12.904Z,101472.60
2022-10-18T02:13:52.025Z,101473.60
2022-10-18T02:16:37.422Z,101477.60
2022-10-18T02:19:26.438Z,101477.00
2022-10-18T02:21:58.155Z,101470.60
2022-10-18T02:24:35.690Z,101473.20
2022-10-18T02:27:04.033Z,101469.20
2022-10-18T02:29:32.711Z,101465.20
2022-10-18T02:32:24.549Z,101460.60
2022-10-18T02:35:13.304Z,101457.40
2022-10-18T02:37:43.245Z,101455.00
2022-10-18T02:40:11.694Z,101453.40
2022-10-18T02:42:54.640Z,101451.00
2022-10-18T02:45:25.567Z,101450.20
2022-10-18T02:47:55.527Z,101450.80
2022-10-18T02:50:23.414Z,101446.60
2022-10-18T02:52:51.580Z,101441.40
2022-10-18T02:55:20.169Z,101438.20
2022-10-18T02:57:48.593Z,101438.60
2022-10-18T03:00:16.334Z,101444.00
2022-10-18T03:02:44.082Z,101446.00
2022-10-18T03:05:12.071Z,101445.20
2022-10-18T03:07:40.318Z,101446.40
2022-10-18T03:10:08.684Z,101446.80
2022-10-18T03:12:36.457Z,101444.80
2022-10-18T03:15:04.829Z,101444.40
2022-10-18T03:17:34.572Z,101448.80
2022-10-18T03:20:03.008Z,101447.40
2022-10-18T03:22:31.320Z,101447.40
2022-10-18T03:24:58.905Z,101445.40
2022-10-18T03:27:26.580Z,101443.00
2022-10-18T03:29:56.689Z,101439.00
2022-10-18T03:32:24.876Z,101440.80
2022-10-18T03:34:53.631Z,101435.00
2022-10-18T03:37:21.328Z,101435.00
2022-10-18T03:39:50.074Z,101431.80
2022-10-18T03:42:18.024Z,101437.20
2022-10-18T03:44:46.597Z,101433.60
2022-10-18T03:47:14.639Z,101435.40
2022-10-18T03:49:42.726Z,101439.20
2022-10-18T03:52:11.164Z,101439.00
2022-10-18T03:54:38.814Z,101444.00
2022-10-18T03:57:06.530Z,101445.80
2022-10-18T03:59:36.979Z,101445.00
2022-10-18T04:02:08.049Z,101442.40
2022-10-18T04:04:36.007Z,101447.00
2022-10-18T04:07:08.233Z,101446.20
2022-10-18T04:09:35.906Z,101447.80
2022-10-18T04:12:03.892Z,101453.80
2022-10-18T04:14:32.103Z,101449.60
2022-10-18T04:17:00.119Z,101451.80
2022-10-18T04:19:27.840Z,101445.00
2022-10-18T04:21:55.573Z,101446.80
2022-10-18T04:24:27.677Z,101445.60
2022-10-18T04:26:55.414Z,101448.20
2022-10-18T04:29:23.120Z,101445.80
2022-10-18T04:31:53.189Z,101447.00
2022-10-18T04:34:20.968Z,101454.60
2022-10-18T04:36:50.734Z,101447.20
2022-10-18T04:39:18.870Z,101447.00
2022-10-18T04:41:46.884Z,101444.40
2022-10-18T04:44:14.919Z,101438.00
2022-10-18T04:46:42.590Z,101439.00
2022-10-18T04:49:10.406Z,101432.80
2022-10-18T04:51:38.376Z,101432.40
2022-10-18T04:54:06.734Z,101432.20
2022-10-18T04:56:34.670Z,101426.20
2022-10-18T04:59:02.308Z,101424.40
2022-10-18T05:01:30.043Z,101431.00
2022-10-18T05:03:57.886Z,101434.80
2022-10-18T05:06:25.938Z,101436.60
2022-10-18T05:08:54.189Z,101435.20
2022-10-18T05:11:22.516Z,101433.40
2022-10-18T05:13:52.354Z,101432.40
2022-10-18T05:16:20.563Z,101429.00
2022-10-18T05:18:49.412Z,101429.80
2022-10-18T05:21:17.402Z,101434.80
2022-10-18T05:23:47.040Z,101439.20
2022-10-18T05:26:14.736Z,101436.40
2022-10-18T05:28:42.472Z,101437.60
2022-10-18T05:31:12.426Z,101440.40
2022-10-18T05:33:41.949Z,101446.40
2022-10-18T05:36:11.503Z,101453.40
2022-10-18T05:38:43.570Z,101457.40
2022-10-18T05:41:14.387Z,101455.20
2022-10-18T05:43:42.165Z,101455.80
2022-10-18T05:46:15.065Z,101459.40
2022-10-18T05:48:49.935Z,101464.20
2022-10-18T05:51:20.071Z,101464.20
2022-10-18T05:53:48.339Z,101468.00
2022-10-18T05:56:16.217Z,101466.40
2022-10-18T05:58:44.398Z,101465.20
2022-10-18T06:01:12.292Z,101461.20
2022-10-18T06:03:40.616Z,101465.00
2022-10-18T06:06:13.089Z,101467.00
2022-10-18T06:08:44.557Z,101468.00
2022-10-18T06:11:16.648Z,101467.80
2022-10-18T06:13:49.426Z,101472.00
2022-10-18T06:16:22.370Z,101484.00
2022-10-18T06:18:56.944Z,101481.40
2022-10-18T06:21:25.179Z,101483.40
2022-10-18T06:23:58.013Z,101482.80
2022-10-18T06:26:28.657Z,101485.80
2022-10-18T06:28:56.589Z,101488.60
2022-10-18T06:31:27.863Z,101486.20
2022-10-18T06:33:59.368Z,101490.80
2022-10-18T06:36:30.473Z,101493.80
2022-10-18T06:39:01.502Z,101502.20
2022-10-18T06:41:30.344Z,101506.60
2022-10-18T06:44:03.300Z,101509.80
2022-10-18T06:46:31.354Z,101508.60
2022-10-18T06:48:59.130Z,101510.20
2022-10-18T06:51:27.128Z,101517.00
2022-10-18T06:54:06.315Z,101520.00
2022-10-18T06:56:43.831Z,101523.60
2022-10-18T06:59:14.619Z,101525.20
2022-10-18T07:01:43.694Z,101524.80
2022-10-18T07:04:11.783Z,101529.80
2022-10-18T07:06:40.652Z,101536.00
2022-10-18T07:09:08.990Z,101542.40
2022-10-18T07:11:37.152Z,101542.40
2022-10-18T07:14:07.313Z,101546.00
2022-10-18T07:16:35.553Z,101549.80
2022-10-18T07:19:04.269Z,101554.20
2022-10-18T07:21:34.187Z,101557.00
2022-10-18T07:24:01.901Z,101565.00
2022-10-18T07:26:38.733Z,101565.20
2022-10-18T07:29:12.271Z,101576.80
2022-10-18T07:31:44.531Z,101579.00
2022-10-18T07:34:14.255Z,101574.20
2022-10-18T07:36:43.453Z,101577.80
2022-10-18T07:39:11.395Z,101578.80
2022-10-18T07:41:40.170Z,101575.80
2022-10-18T07:44:13.127Z,101582.60
2022-10-18T07:46:41.060Z,101582.00
2022-10-18T07:49:08.953Z,101585.20
2022-10-18T07:51:36.964Z,101588.80
2022-10-18T07:54:04.839Z,101596.20
2022-10-18T07:56:32.794Z,101605.60
2022-10-18T07:59:02.407Z,101608.00
2022-10-18T08:01:30.402Z,101609.40
2022-10-18T08:04:07.817Z,101609.20
2022-10-18T08:06:37.589Z,101610.40
2022-10-18T08:09:07.974Z,101607.80
2022-10-18T08:11:35.961Z,101612.80
2022-10-18T08:14:04.258Z,101607.60
2022-10-18T08:16:40.011Z,101613.20
2022-10-18T08:19:09.577Z,101616.00
2022-10-18T08:21:37.660Z,101614.80
2022-10-18T08:24:05.897Z,101620.60
2022-10-18T08:26:36.627Z,101619.80
2022-10-18T08:29:24.835Z,101631.20
2022-10-18T08:31:54.855Z,101633.40
2022-10-18T08:34:23.993Z,101632.60
2022-10-18T08:36:51.893Z,101631.40
2022-10-18T08:39:19.684Z,101639.80
2022-10-18T08:42:06.244Z,101640.60
2022-10-18T08:44:46.635Z,101635.40
2022-10-18T08:47:42.482Z,101644.40
2022-10-18T08:50:32.164Z,101644.60
2022-10-18T08:53:36.305Z,101655.20
2022-10-18T08:56:21.462Z,101660.60
2022-10-18T08:58:50.014Z,101661.40
2022-10-18T09:05:11.453Z,101664.80
2022-10-18T09:08:20.160Z,101668.60
2022-10-18T09:11:17.099Z,101669.40
2022-10-18T09:14:26.646Z,101673.00
2022-10-18T09:17:51.521Z,101678.20
2022-10-18T09:20:31.162Z,101680.40
2022-10-18T09:23:33.431Z,101681.80
2022-10-18T09:26:23.689Z,101690.60
2022-10-18T09:29:38.335Z,101689.20
2022-10-18T09:32:47.188Z,101697.00
2022-10-18T09:35:32.777Z,101700.20
2022-10-18T09:38:09.518Z,101705.20
2022-10-18T09:40:56.447Z,101713.40
2022-10-18T09:43:42.165Z,101721.60
2022-10-18T09:46:14.344Z,101719.60
2022-10-18T09:49:15.676Z,101726.40
2022-10-18T09:51:46.156Z,101715.20
2022-10-18T09:54:42.502Z,101713.60
2022-10-18T09:57:28.393Z,101711.00
2022-10-18T09:59:59.481Z,101708.00
2022-10-18T10:02:28.244Z,101707.60
2022-10-18T10:04:56.801Z,101710.40
2022-10-18T10:07:38.942Z,101720.00
2022-10-18T10:10:15.790Z,101722.60
2022-10-18T10:12:48.260Z,101723.80
2022-10-18T10:15:31.384Z,101725.20
2022-10-18T10:18:31.028Z,101722.60
2022-10-18T10:21:07.561Z,101729.60
2022-10-18T10:23:45.119Z,101735.20
2022-10-18T10:26:37.368Z,101740.80
2022-10-18T10:29:53.960Z,101747.60
2022-10-18T10:34:57.105Z,101770.80
2022-10-18T10:37:25.377Z,101774.40
2022-10-18T10:40:28.782Z,101782.00
2022-10-18T10:43:08.922Z,101781.40
2022-10-18T10:46:15.749Z,101789.00
2022-10-18T10:49:04.445Z,101791.80
2022-10-18T10:51:43.933Z,101799.20
2022-10-18T10:54:23.393Z,101796.40
2022-10-18T10:57:11.392Z,101796.60
2022-10-18T11:00:06.342Z,101797.80
2022-10-18T11:02:37.517Z,101801.80
2022-10-18T11:05:29.476Z,101805.20
2022-10-18T11:08:04.362Z,101807.80
2022-10-18T11:10:46.236Z,101812.40
2022-10-18T11:14:32.092Z,101814.40
2022-10-18T11:17:13.064Z,101824.40
2022-10-18T11:20:13.702Z,101825.40
2022-10-18T11:23:08.944Z,101823.60
2022-10-18T11:26:05.333Z,101819.40
2022-10-18T11:29:04.295Z,101821.60
2022-10-18T11:32:06.716Z,101820.40
2022-10-18T11:34:51.920Z,101822.80
2022-10-18T11:38:13.269Z,101829.20
2022-10-18T11:41:31.196Z,101822.20
2022-10-18T11:44:13.841Z,101832.80
2022-10-18T11:47:43.034Z,101840.20
2022-10-18T11:50:42.838Z,101843.60
2022-10-18T11:53:46.142Z,101853.40
2022-10-18T11:56:56.515Z,101859.80
2022-10-18T12:00:08.211Z,101878.40
2022-10-18T12:03:13.998Z,101881.40
2022-10-18T12:05:54.521Z,101884.20
2022-10-18T12:08:38.994Z,101888.20
2022-10-18T12:11:19.697Z,101894.80
2022-10-18T12:14:08.996Z,101890.20
2022-10-18T12:17:20.224Z,101898.40
2022-10-18T12:19:35.231Z,101905.20
2022-10-18T12:22:58.326Z,101900.80
2022-10-18T12:25:30.372Z,101910.60
2022-10-18T12:28:13.346Z,101914.40
2022-10-18T12:30:55.143Z,101923.40
2022-10-18T12:33:30.695Z,101934.20
2022-10-18T12:36:21.489Z,101938.80
2022-10-18T12:38:59.155Z,101937.80
2022-10-18T12:41:36.868Z,101933.00
2022-10-18T12:44:27.992Z,101936.80
2022-10-18T12:47:01.783Z,101936.00
2022-10-18T12:49:40.213Z,101941.00
2022-10-18T12:52:23.093Z,101938.00
2022-10-18T12:55:20.817Z,101950.20
2022-10-18T12:57:56.598Z,101959.60
2022-10-18T13:00:49.959Z,101964.20
2022-10-18T13:03:20.964Z,101971.60
2022-10-18T13:05:54.455Z,101971.20
2022-10-18T13:08:42.030Z,101975.00
2022-10-18T13:11:13.005Z,101977.20
2022-10-18T13:14:49.401Z,101986.20
2022-10-18T13:17:43.614Z,101997.00
2022-10-18T13:20:50.062Z,102003.60
2022-10-18T13:23:36.964Z,102001.60
2022-10-18T13:26:34.406Z,102012.40
2022-10-18T13:29:34.580Z,102016.20
2022-10-18T13:32:28.609Z,102025.60
2022-10-18T13:34:56.661Z,102025.60
2022-10-18T13:37:29.882Z,102026.60
2022-10-18T13:40:38.208Z,102029.00
2022-10-18T13:43:53.156Z,102030.00
2022-10-18T13:46:38.711Z,102029.80
2022-10-18T13:49:45.043Z,102038.80
2022-10-18T13:52:32.638Z,102036.00
2022-10-18T13:55:57.790Z,102042.20
2022-10-18T13:59:06.114Z,102052.20
2022-10-18T14:02:01.483Z,102056.00
2022-10-18T14:05:16.586Z,102055.00
2022-10-18T14:07:52.380Z,102066.80
2022-10-18T14:11:01.490Z,102064.80
2022-10-18T14:14:03.046Z,102068.80
2022-10-18T14:16:49.518Z,102069.80
2022-10-18T14:19:26.216Z,102073.40
2022-10-18T14:22:12.296Z,102072.40
2022-10-18T14:24:52.500Z,102078.80
2022-10-18T14:27:27.923Z,102079.60
2022-10-18T14:30:17.316Z,102084.60
2022-10-18T14:33:02.748Z,102092.40
2022-10-18T14:35:35.633Z,102092.40
2022-10-18T14:38:13.750Z,102093.00
2022-10-18T14:40:45.082Z,102097.40
2022-10-18T14:43:20.889Z,102104.20
2022-10-18T14:45:50.078Z,102102.80
2022-10-18T14:48:22.669Z,102104.60
2022-10-18T14:51:00.679Z,102116.20
2022-10-18T14:53:37.794Z,102120.60
2022-10-18T14:56:08.305Z,102130.20
2022-10-18T14:58:38.274Z,102130.20
2022-10-18T15:01:07.495Z,102133.00
2022-10-18T15:03:37.082Z,102138.00
2022-10-18T15:06:09.303Z,102137.20
2022-10-18T15:08:42.570Z,102141.60
2022-10-18T15:11:17.321Z,102143.40
2022-10-18T15:14:03.936Z,102145.40
2022-10-18T15:16:33.265Z,102150.60
2022-10-18T15:19:16.287Z,102155.80
2022-10-18T15:22:38.492Z,102157.20
2022-10-18T15:25:36.144Z,102161.80
2022-10-18T15:28:10.542Z,102167.60
2022-10-18T15:30:44.309Z,102172.40
2022-10-18T15:33:23.965Z,102174.40
2022-10-18T15:35:55.158Z,102178.80
2022-10-18T15:38:28.922Z,102186.40
2022-10-18T15:40:58.145Z,102181.00
2022-10-18T15:43:27.539Z,102189.20
2022-10-18T15:46:03.236Z,102195.40
2022-10-18T15:48:35.512Z,102197.00
2022-10-18T15:51:08.422Z,102196.60
2022-10-18T15:53:54.863Z,102203.20
2022-10-18T15:56:36.965Z,102205.80
2022-10-18T15:59:25.407Z,102207.20
2022-10-18T16:01:55.453Z,102209.60
2022-10-18T16:04:33.628Z,102217.40
2022-10-18T16:07:01.314Z,102221.60
2022-10-18T16:09:30.829Z,102229.20
2022-10-18T16:11:59.195Z,102226.60
2022-10-18T16:14:27.251Z,102235.60
2022-10-18T16:17:03.882Z,102241.80
2022-10-18T16:19:36.695Z,102244.40
2022-10-18T16:22:07.151Z,102247.20
2022-10-18T16:24:36.241Z,102254.00
2022-10-18T16:27:05.586Z,102252.20
2022-10-18T16:29:36.385Z,102253.20
2022-10-18T16:32:07.542Z,102252.40
2022-10-18T16:34:35.217Z,102257.60
2022-10-18T16:37:03.292Z,102259.40
2022-10-18T16:39:37.397Z,102261.40
2022-10-18T16:42:07.657Z,102259.80
2022-10-18T16:44:35.397Z,102262.00
2022-10-18T16:47:04.332Z,102259.00
2022-10-18T16:49:32.176Z,102266.80
2022-10-18T16:52:03.875Z,102276.20
2022-10-18T16:54:36.947Z,102271.00
2022-10-18T16:57:05.656Z,102275.80
2022-10-18T16:59:35.200Z,102274.60
2022-10-18T17:02:09.030Z,102272.40
2022-10-18T17:04:37.549Z,102274.40
2022-10-18T17:07:07.481Z,102280.20
2022-10-18T17:09:37.844Z,102282.80
2022-10-18T17:12:07.290Z,102286.20
2022-10-18T17:14:38.705Z,102292.80
2022-10-18T17:17:13.292Z,102297.20
2022-10-18T17:19:42.930Z,102306.80
2022-10-18T17:22:11.233Z,102313.40
2022-10-18T17:24:40.550Z,102314.40
2022-10-18T17:27:14.263Z,102317.40
2022-10-18T17:29:42.076Z,102326.00
2022-10-18T17:32:13.667Z,102327.80
2022-10-18T17:39:55.962Z,102340.80
2022-10-18T17:42:25.305Z,102342.00
2022-10-18T17:44:55.542Z,102351.20
2022-10-18T17:47:29.029Z,102357.80
2022-10-18T17:49:58.868Z,102360.00
2022-10-18T17:52:27.862Z,102358.20
2022-10-18T17:54:55.981Z,102364.00
2022-10-18T17:57:27.697Z,102366.20
2022-10-18T17:59:57.019Z,102368.60
2022-10-18T18:02:26.131Z,102378.20
2022-10-18T18:04:55.473Z,102376.40
2022-10-18T18:07:23.993Z,102385.60
2022-10-18T18:09:53.263Z,102388.60
2022-10-18T18:12:22.198Z,102392.80
2022-10-18T18:14:51.205Z,102398.40
2022-10-18T18:17:28.576Z,102401.20
2022-10-18T18:20:10.328Z,102402.20
2022-10-18T18:22:41.618Z,102406.00
2022-10-18T18:25:10.861Z,102416.00
2022-10-18T18:27:39.323Z,102417.20
2022-10-18T18:30:19.798Z,102418.20
2022-10-18T18:32:48.047Z,102417.40
2022-10-18T18:35:16.839Z,102425.80
2022-10-18T18:37:44.635Z,102425.60
2022-10-18T18:40:15.229Z,102429.00
2022-10-18T18:42:43.166Z,102434.00
2022-10-18T18:45:11.308Z,102433.20
2022-10-18T18:47:42.758Z,102437.20
2022-10-18T18:50:14.785Z,102435.20
2022-10-18T18:52:43.456Z,102438.60
2022-10-18T18:55:16.379Z,102440.00
2022-10-18T18:57:48.348Z,102443.80
2022-10-18T19:00:19.193Z,102449.00
2022-10-18T19:02:47.614Z,102448.60
2022-10-18T19:05:24.680Z,102450.60
2022-10-18T19:08:05.768Z,102457.60
2022-10-18T19:10:34.264Z,102461.80
2022-10-18T19:13:11.635Z,102472.40
2022-10-18T19:15:50.615Z,102473.40
2022-10-18T19:18:23.894Z,102479.80
2022-10-18T19:20:53.527Z,102479.00
2022-10-18T19:23:23.054Z,102489.20
2022-10-18T19:25:56.795Z,102484.80
2022-10-18T19:28:26.331Z,102484.80
2022-10-18T19:30:56.140Z,102488.40
2022-10-18T19:33:41.291Z,102489.20
2022-10-18T19:36:16.890Z,102493.60
2022-10-18T19:38:47.236Z,102493.80
2022-10-18T19:41:17.110Z,102495.60
2022-10-18T19:43:50.753Z,102498.20
2022-10-18T19:46:19.758Z,102502.40
2022-10-18T19:48:47.881Z,102507.40
2022-10-18T19:51:20.262Z,102511.20
2022-10-18T19:53:57.468Z,102514.80
2022-10-18T19:56:28.064Z,102518.20
2022-10-18T19:59:08.364Z,102529.40
2022-10-18T20:01:37.478Z,102528.40
2022-10-18T20:04:09.865Z,102537.20
2022-10-18T20:06:42.422Z,102539.00
2022-10-18T20:09:16.211Z,102542.60
2022-10-18T20:11:49.763Z,102540.00
2022-10-18T20:14:21.521Z,102543.00
2022-10-18T20:16:49.957Z,102542.20
2022-10-18T20:19:17.773Z,102546.00
2022-10-18T20:21:55.539Z,102554.60
2022-10-18T20:24:24.058Z,102556.40
2022-10-18T20:29:25.672Z,102570.00
2022-10-18T20:31:55.778Z,102581.20
2022-10-18T20:34:26.144Z,102585.00
2022-10-18T20:36:55.564Z,102583.60
2022-10-18T20:39:24.356Z,102591.20
2022-10-18T20:41:53.022Z,102593.40
2022-10-18T20:44:29.067Z,102599.00
2022-10-18T20:46:56.946Z,102601.40
2022-10-18T20:49:25.704Z,102606.60
2022-10-18T20:51:53.728Z,102605.40
2022-10-18T20:54:23.559Z,102605.60
2022-10-18T20:56:51.850Z,102609.20
2022-10-18T20:59:20.885Z,102610.60
2022-10-18T21:01:50.161Z,102615.00
2022-10-18T21:04:21.529Z,102613.20
2022-10-18T21:06:50.738Z,102616.40
2022-10-18T21:09:21.314Z,102620.00
2022-10-18T21:11:58.358Z,102614.40
2022-10-18T21:14:26.709Z,102615.60
2022-10-18T21:16:55.828Z,102618.80
2022-10-18T21:19:27.694Z,102620.80
2022-10-18T21:21:57.954Z,102622.40
2022-10-18T21:24:26.979Z,102620.00
2022-10-18T21:26:58.054Z,102626.00
2022-10-18T21:29:31.327Z,102628.20
2022-10-18T21:32:01.063Z,102641.20
2022-10-18T21:34:30.776Z,102642.40
2022-10-18T21:36:58.605Z,102646.20
2022-10-18T21:39:26.499Z,102644.60
2022-10-18T21:41:55.222Z,102644.80
2022-10-18T21:44:23.041Z,102650.20
2022-10-18T21:46:51.010Z,102657.20
2022-10-18T21:49:19.647Z,102664.00
2022-10-18T21:51:47.476Z,102664.80
2022-10-18T21:54:28.493Z,102669.20
2022-10-18T21:56:58.602Z,102667.40
2022-10-18T21:59:27.020Z,102670.20
2022-10-18T22:01:56.898Z,102671.20
2022-10-18T22:04:25.852Z,102668.80
2022-10-18T22:06:54.562Z,102678.00
2022-10-18T22:09:22.448Z,102677.40
2022-10-18T22:11:54.039Z,102680.20
2022-10-18T22:14:23.345Z,102684.80
2022-10-18T22:16:52.328Z,102682.40
2022-10-18T22:19:21.785Z,102688.00
2022-10-18T22:21:50.487Z,102694.80
2022-10-18T22:24:20.266Z,102693.80
2022-10-18T22:26:50.199Z,102697.80
2022-10-18T22:29:21.411Z,102697.40
2022-10-18T22:31:57.150Z,102698.60
2022-10-18T22:34:29.782Z,102704.20
2022-10-18T22:36:58.957Z,102703.00
2022-10-18T22:39:31.640Z,102705.60
2022-10-18T22:41:59.546Z,102707.00
2022-10-18T22:44:31.182Z,102710.20
2022-10-18T22:47:01.683Z,102720.00
2022-10-18T22:49:30.111Z,102717.60
2022-10-18T22:51:59.882Z,102726.40
2022-10-18T22:54:30.425Z,102730.60
2022-10-18T22:57:00.356Z,102735.80
2022-10-18T22:59:29.655Z,102739.80
2022-10-18T23:01:58.233Z,102742.40
2022-10-18T23:04:26.478Z,102743.80
2022-10-18T23:06:54.451Z,102748.00
2022-10-18T23:09:23.064Z,102754.00
2022-10-18T23:11:54.314Z,102753.80
2022-10-18T23:14:25.490Z,102751.80
2022-10-18T23:16:55.446Z,102762.60
2022-10-18T23:19:26.608Z,102765.60
2022-10-18T23:21:54.235Z,102766.60
2022-10-18T23:24:27.368Z,102765.60
2022-10-18T23:26:57.881Z,102767.40
2022-10-18T23:29:34.272Z,102767.40
2022-10-18T23:32:02.055Z,102768.60
2022-10-18T23:34:29.869Z,102769.20
2022-10-18T23:36:58.273Z,102764.40
2022-10-18T23:39:28.295Z,102770.40
2022-10-18T23:41:59.933Z,102772.60
2022-10-18T23:44:30.683Z,102772.20
2022-10-18T23:47:06.421Z,102777.80
2022-10-18T23:49:34.355Z,102778.60
2022-10-18T23:52:03.306Z,102780.80
2022-10-18T23:54:31.292Z,102786.20
2022-10-18T23:57:00.656Z,102784.80
2022-10-18T23:59:28.636Z,102790.20
